createdAt,value
2018-02-06T00:00:39.333Z,20.00
2018-02-06T00:03:07.127Z,19.27
2018-02-06T00:05:35.679Z,21.12
2018-02-06T00:08:03.546Z,20.65
2018-02-06T00:10:31.414Z,18.25
2018-02-06T00:12:59.281Z,21.48
2018-02-06T00:15:27.148Z,19.20
2018-02-06T00:17:55.016Z,21.52
2018-02-06T00:20:22.883Z,23.58
2018-02-06T00:22:50.852Z,20.70
2018-02-06T00:25:18.722Z,28.40
2018-02-06T00:27:46.587Z,24.77
2018-02-06T00:30:14.455Z,25.98
2018-02-06T00:32:42.324Z,23.45
2018-02-06T00:35:10.190Z,22.92
2018-02-06T00:37:38.056Z,21.35
2018-02-06T00:40:05.924Z,19.60
2018-02-06T00:42:33.792Z,29.67
2018-02-06T00:45:01.559Z,22.77
2018-02-06T00:47:29.424Z,20.70
2018-02-06T00:49:57.291Z,21.98
2018-02-06T00:52:25.160Z,19.98
2018-02-06T00:54:53.027Z,25.70
2018-02-06T00:57:20.893Z,23.02
2018-02-06T00:59:48.761Z,22.08
2018-02-06T01:02:16.628Z,23.70
2018-02-06T01:04:44.494Z,22.20
2018-02-06T01:07:12.362Z,22.70
2018-02-06T01:09:40.228Z,20.00
2018-02-06T01:12:08.096Z,21.67
2018-02-06T01:14:35.894Z,22.87
2018-02-06T01:17:04.445Z,26.87
2018-02-06T01:19:32.247Z,21.90
2018-02-06T01:22:00.794Z,24.63
2018-02-06T01:24:28.798Z,20.17
2018-02-06T01:26:56.631Z,19.87
2018-02-06T01:29:24.498Z,26.77
2018-02-06T01:31:52.367Z,20.85
2018-02-06T01:34:20.234Z,23.87
2018-02-06T01:36:48.100Z,21.37
2018-02-06T01:39:15.978Z,21.20
2018-02-06T01:41:43.835Z,21.05
2018-02-06T01:44:11.702Z,19.80
2018-02-06T01:46:39.570Z,19.20
2018-02-06T01:49:07.436Z,20.77
2018-02-06T01:51:35.304Z,19.77
2018-02-06T01:54:03.172Z,27.55
2018-02-06T01:56:31.039Z,25.55
2018-02-06T01:58:58.908Z,25.33
2018-02-06T02:01:26.774Z,24.10
2018-02-06T02:03:54.669Z,22.10
2018-02-06T02:06:23.224Z,23.00
2018-02-06T02:08:51.092Z,26.27
2018-02-06T02:11:18.959Z,25.80
2018-02-06T02:13:46.829Z,20.88
2018-02-06T02:16:14.693Z,22.08
2018-02-06T02:18:42.561Z,23.12
2018-02-06T02:21:10.430Z,24.50
2018-02-06T02:23:38.300Z,21.52
2018-02-06T02:26:06.163Z,22.65
2018-02-06T02:28:34.030Z,23.83
2018-02-06T02:31:01.896Z,23.42
2018-02-06T02:33:29.765Z,21.40
2018-02-06T02:35:57.631Z,22.40
2018-02-06T02:38:25.499Z,27.05
2018-02-06T02:40:53.368Z,22.70
2018-02-06T04:39:01.823Z,25.95
2018-02-06T04:41:30.466Z,30.33
2018-02-06T04:43:58.334Z,25.55
2018-02-06T04:46:26.201Z,25.62
2018-02-06T04:48:54.069Z,23.40
2018-02-06T04:51:21.936Z,22.10
2018-02-06T04:53:49.705Z,24.40
2018-02-06T04:56:17.568Z,27.13
2018-02-06T04:58:45.435Z,23.65
2018-02-06T05:01:13.302Z,23.17
2018-02-06T05:03:41.169Z,24.08
2018-02-06T05:06:09.037Z,25.77
2018-02-06T05:08:36.906Z,24.90
2018-02-06T05:11:04.774Z,24.55
2018-02-06T05:13:32.640Z,25.15
2018-02-06T05:16:00.506Z,27.08
2018-02-06T05:18:28.374Z,22.23
2018-02-06T05:20:56.241Z,30.45
2018-02-06T05:23:24.109Z,30.67
2018-02-06T05:25:51.975Z,23.12
2018-02-06T05:28:19.843Z,23.23
2018-02-06T05:30:47.709Z,23.90
2018-02-06T05:33:15.578Z,26.67
2018-02-06T05:35:43.445Z,23.42
2018-02-06T05:38:11.311Z,23.55
2018-02-06T05:40:39.183Z,24.40
2018-02-06T05:43:07.047Z,26.77
2018-02-06T05:45:34.914Z,23.62
2018-02-06T05:48:02.782Z,25.05
2018-02-06T05:50:30.648Z,22.75
2018-02-06T05:52:58.515Z,25.52
2018-02-06T05:55:26.383Z,23.48
2018-02-06T05:57:54.250Z,27.13
2018-02-06T06:00:22.220Z,26.83
2018-02-06T06:02:50.087Z,30.52
2018-02-06T06:05:17.955Z,28.15
2018-02-06T06:07:45.822Z,24.75
2018-02-06T06:10:13.690Z,28.48
2018-02-06T06:12:41.556Z,24.67
2018-02-06T06:15:09.424Z,24.08
2018-02-06T06:17:37.291Z,30.37
2018-02-06T06:20:05.158Z,26.20
2018-02-06T06:22:33.026Z,27.62
2018-02-06T06:25:00.893Z,24.05
2018-02-06T06:27:28.759Z,25.95
2018-02-06T06:29:56.554Z,24.60
2018-02-06T06:32:24.494Z,32.10
2018-02-06T06:34:52.362Z,28.55
2018-02-06T06:37:20.229Z,26.87
2018-02-06T06:39:48.098Z,26.77
2018-02-06T06:42:15.964Z,24.70
2018-02-06T06:44:43.831Z,29.58
2018-02-06T06:47:11.699Z,23.33
2018-02-06T06:49:39.566Z,25.55
2018-02-06T06:52:07.362Z,27.35
2018-02-06T06:54:36.119Z,25.98
2018-02-06T06:57:03.987Z,29.75
2018-02-06T06:59:31.854Z,29.67
2018-02-06T07:01:59.721Z,31.40
2018-02-06T07:04:27.588Z,28.52
2018-02-06T07:06:55.456Z,29.92
2018-02-06T07:09:23.322Z,29.80
2018-02-06T07:11:51.192Z,30.27
2018-02-06T07:14:19.057Z,38.42
2018-02-06T07:16:46.924Z,28.75
2018-02-06T07:19:14.792Z,28.80
2018-02-06T07:21:42.660Z,29.10
2018-02-06T07:24:10.527Z,28.27
2018-02-06T07:26:38.393Z,24.05
2018-02-06T07:29:06.260Z,25.95
2018-02-06T07:31:34.130Z,24.02
2018-02-06T07:34:01.999Z,25.00
2018-02-06T07:36:29.863Z,32.25
2018-02-06T07:38:57.832Z,27.37
2018-02-06T07:41:25.700Z,30.83
2018-02-06T07:43:53.567Z,30.15
2018-02-06T07:46:21.435Z,26.45
2018-02-06T07:48:49.304Z,25.95
2018-02-06T07:51:17.097Z,29.30
2018-02-06T07:53:44.936Z,26.52
2018-02-06T07:56:12.805Z,29.77
2018-02-06T07:58:41.488Z,29.10
2018-02-06T08:01:09.354Z,30.85
2018-02-06T08:03:37.222Z,29.95
2018-02-06T08:08:38.998Z,32.80
2018-02-06T08:11:06.705Z,28.52
2018-02-06T08:13:35.347Z,27.73
2018-02-06T08:16:03.214Z,27.20
2018-02-06T08:18:31.083Z,24.70
2018-02-06T08:20:58.949Z,31.30
2018-02-06T08:23:26.817Z,29.15
2018-02-06T08:25:54.684Z,24.27
2018-02-06T08:28:22.550Z,27.83
2018-02-06T08:30:50.418Z,30.42
2018-02-06T08:33:18.285Z,26.62
2018-02-06T08:35:46.152Z,29.05
2018-02-06T08:38:14.019Z,25.10
2018-02-06T08:40:41.887Z,28.42
2018-02-06T08:43:09.754Z,28.75
2018-02-06T08:45:37.621Z,26.80
2018-02-06T08:48:05.490Z,25.90
2018-02-06T08:50:33.356Z,25.98
2018-02-06T08:53:01.223Z,25.75
2018-02-06T08:55:29.090Z,29.05
2018-02-06T08:57:56.958Z,26.77
2018-02-06T09:00:24.825Z,29.45
2018-02-06T09:02:52.692Z,27.25
2018-02-06T09:05:20.560Z,27.98
2018-02-06T09:07:48.427Z,27.52
2018-02-06T09:10:16.294Z,29.85
2018-02-06T09:12:44.162Z,28.17
2018-02-06T09:15:12.029Z,28.08
2018-02-06T09:17:39.896Z,28.02
2018-02-06T09:20:07.764Z,26.15
2018-02-06T09:22:35.630Z,30.52
2018-02-06T09:25:03.498Z,28.92
2018-02-06T09:27:31.366Z,27.25
2018-02-06T09:29:59.234Z,25.67
2018-02-06T09:32:27.100Z,30.25
2018-02-06T09:34:54.967Z,28.10
2018-02-06T09:37:22.834Z,27.37
2018-02-06T09:39:50.701Z,29.77
2018-02-06T09:42:18.568Z,33.92
2018-02-06T09:44:46.438Z,29.35
2018-02-06T09:47:14.303Z,26.83
2018-02-06T09:49:42.171Z,34.08
2018-02-06T09:52:10.857Z,31.35
2018-02-06T09:54:38.724Z,33.70
2018-02-06T09:57:06.591Z,28.52
2018-02-06T09:59:34.459Z,29.73
2018-02-06T10:02:02.326Z,28.75
2018-02-06T10:04:30.194Z,33.10
2018-02-06T10:06:58.060Z,28.33
2018-02-06T10:09:25.928Z,25.58
2018-02-06T10:11:53.795Z,31.62
2018-02-06T10:14:21.663Z,32.40
2018-02-06T10:16:49.530Z,28.10
2018-02-06T10:19:17.399Z,29.25
2018-02-06T10:21:45.264Z,39.97
2018-02-06T10:24:13.336Z,30.62
2018-02-06T10:26:41.205Z,33.58
2018-02-06T10:29:09.071Z,30.95
2018-02-06T10:31:36.940Z,28.12
2018-02-06T10:34:04.805Z,29.27
2018-02-06T10:36:32.673Z,30.58
2018-02-06T10:39:00.586Z,37.25
2018-02-06T10:41:29.053Z,28.77
2018-02-06T10:43:56.756Z,30.48
2018-02-06T10:46:24.458Z,34.15
2018-02-06T10:48:52.161Z,33.35
2018-02-06T10:51:20.797Z,29.85
2018-02-06T10:53:48.666Z,30.17
2018-02-06T10:56:16.532Z,30.85
2018-02-06T10:58:44.405Z,36.58
2018-02-06T11:01:12.269Z,29.45
2018-02-06T11:03:40.060Z,33.47
2018-02-06T11:06:07.900Z,33.05
2018-02-06T11:08:35.766Z,33.80
2018-02-06T11:11:03.633Z,29.02
2018-02-06T11:13:31.430Z,30.10
2018-02-06T11:15:59.983Z,30.17
2018-02-06T11:18:27.693Z,32.35
2018-02-06T11:20:56.168Z,29.80
2018-02-06T11:23:24.813Z,30.85
2018-02-06T11:25:52.681Z,38.38
2018-02-06T11:28:20.549Z,31.40
2018-02-06T11:30:48.416Z,32.17
2018-02-06T11:33:16.283Z,28.50
2018-02-06T11:35:44.150Z,33.33
2018-02-06T11:38:12.073Z,31.90
2018-02-06T11:40:40.703Z,30.70
2018-02-06T11:43:08.571Z,31.10
2018-02-06T11:45:36.446Z,30.02
2018-02-06T11:48:04.306Z,33.30
2018-02-06T11:50:32.172Z,30.58
2018-02-06T11:53:00.041Z,32.03
2018-02-06T11:55:27.907Z,29.23
2018-02-06T11:57:55.775Z,31.40
2018-02-06T12:00:23.642Z,33.20
2018-02-06T12:02:51.510Z,29.85
2018-02-06T12:05:19.377Z,31.50
2018-02-06T12:07:47.243Z,30.85
2018-02-06T12:10:15.111Z,27.08
2018-02-06T12:12:42.978Z,31.80
2018-02-06T12:15:10.845Z,28.45
2018-02-06T12:17:38.721Z,31.35
2018-02-06T12:20:06.579Z,31.20
2018-02-06T12:22:34.448Z,32.03
2018-02-06T12:25:02.315Z,31.95
2018-02-06T12:27:30.182Z,32.25
2018-02-06T12:29:58.049Z,25.90
2018-02-06T12:32:26.019Z,29.73
2018-02-06T12:34:53.886Z,25.62
2018-02-06T12:37:21.754Z,29.55
2018-02-06T12:39:49.620Z,26.50
2018-02-06T12:42:17.487Z,29.17
2018-02-06T12:44:45.355Z,29.15
2018-02-06T12:47:13.224Z,28.67
2018-02-06T12:49:41.092Z,29.73
2018-02-06T12:52:08.963Z,32.00
2018-02-06T12:54:36.825Z,32.15
2018-02-06T12:57:04.696Z,31.65
2018-02-06T13:02:00.221Z,34.63
2018-02-06T13:04:28.088Z,29.37
2018-02-06T13:06:55.889Z,29.50
2018-02-06T13:09:24.441Z,29.90
2018-02-06T13:11:52.304Z,30.20
2018-02-06T13:14:20.172Z,29.33
2018-02-06T13:16:48.039Z,31.35
2018-02-06T13:19:15.906Z,34.00
2018-02-06T13:21:43.774Z,35.85
2018-02-06T13:24:11.641Z,30.25
2018-02-06T13:26:39.508Z,28.27
2018-02-06T13:29:07.375Z,26.85
2018-02-06T13:31:35.243Z,28.90
2018-02-06T13:34:03.110Z,29.60
2018-02-06T13:36:30.977Z,30.25
2018-02-06T13:38:58.844Z,29.55
2018-02-06T13:41:26.712Z,30.30
2018-02-06T13:43:54.579Z,35.65
2018-02-06T13:46:22.446Z,31.27
2018-02-06T13:48:50.314Z,29.00
2018-02-06T13:51:18.182Z,29.05
2018-02-06T13:53:46.049Z,29.25
2018-02-06T13:56:13.918Z,35.42
2018-02-06T13:58:41.713Z,30.08
2018-02-06T14:01:10.197Z,27.17
2018-02-06T14:03:38.677Z,27.25
2018-02-06T14:06:07.431Z,34.05
2018-02-06T14:08:35.299Z,34.58
2018-02-06T14:11:03.165Z,33.10
2018-02-06T14:13:31.034Z,30.45
2018-02-06T14:15:58.901Z,31.83
2018-02-06T14:18:26.768Z,28.55
2018-02-06T14:20:54.637Z,27.25
2018-02-06T14:23:22.502Z,30.75
2018-02-06T14:25:50.382Z,32.38
2018-02-06T14:28:18.240Z,30.25
2018-02-06T14:30:46.105Z,32.90
2018-02-06T14:33:13.906Z,35.15
2018-02-06T14:35:42.557Z,37.15
2018-02-06T14:38:25.273Z,28.20
2018-02-06T14:40:53.140Z,34.13
2018-02-06T14:43:21.007Z,28.05
2018-02-06T14:45:48.874Z,29.12
2018-02-06T14:48:16.743Z,30.70
2018-02-06T14:50:44.610Z,30.77
2018-02-06T14:53:12.476Z,30.17
2018-02-06T14:55:40.344Z,31.83
2018-02-06T14:58:08.209Z,30.00
2018-02-06T15:00:36.078Z,30.20
2018-02-06T15:03:03.945Z,29.73
2018-02-06T15:05:31.814Z,32.75
2018-02-06T15:07:59.681Z,30.33
2018-02-06T15:10:27.546Z,30.17
2018-02-06T15:12:55.412Z,30.60
2018-02-06T15:15:23.280Z,29.58
2018-02-06T15:17:51.149Z,30.85
2018-02-06T15:20:19.015Z,34.15
2018-02-06T15:22:46.985Z,30.10
2018-02-06T15:25:14.852Z,26.77
2018-02-06T15:27:42.721Z,34.85
2018-02-06T15:30:10.599Z,29.67
2018-02-06T15:32:39.274Z,32.83
2018-02-06T15:35:07.078Z,28.38
2018-02-06T15:37:35.725Z,31.52
2018-02-06T15:40:03.591Z,33.53
2018-02-06T15:42:31.458Z,29.70
2018-02-06T15:44:59.326Z,23.73
2018-02-06T15:47:27.194Z,32.17
2018-02-06T15:49:54.935Z,27.17
2018-02-06T15:52:22.724Z,30.35
2018-02-06T15:54:50.591Z,27.25
2018-02-06T15:57:18.461Z,31.95
2018-02-06T15:59:46.325Z,31.40
2018-02-06T16:02:14.192Z,30.95
2018-02-06T16:04:42.263Z,26.10
2018-02-06T16:07:12.705Z,28.92
2018-02-06T16:09:41.480Z,28.67
2018-02-06T16:12:09.348Z,30.27
2018-02-06T16:14:37.220Z,30.65
2018-02-06T16:17:05.901Z,30.52
2018-02-06T16:19:33.784Z,30.85
2018-02-06T16:22:01.636Z,31.12
2018-02-06T16:24:29.506Z,27.00
2018-02-06T16:26:57.377Z,31.60
2018-02-06T16:29:25.237Z,27.42
2018-02-06T16:31:53.105Z,29.98
2018-02-06T16:34:20.973Z,27.90
2018-02-06T16:36:48.839Z,32.30
2018-02-06T16:39:17.559Z,29.83
2018-02-06T16:41:45.394Z,30.88
2018-02-06T16:44:13.189Z,28.73
2018-02-06T16:46:41.033Z,27.73
2018-02-06T16:49:08.892Z,25.33
2018-02-06T16:51:36.759Z,33.42
2018-02-06T16:54:04.627Z,27.77
2018-02-06T16:56:32.494Z,34.60
2018-02-06T16:59:00.361Z,30.25
2018-02-06T17:01:28.229Z,32.83
2018-02-06T17:03:56.096Z,26.87
2018-02-06T17:06:23.964Z,27.35
2018-02-06T17:08:51.832Z,22.90
2018-02-06T17:11:19.699Z,27.20
2018-02-06T17:13:47.567Z,32.53
2018-02-06T17:16:15.433Z,27.85
2018-02-06T17:18:43.301Z,26.33
2018-02-06T17:21:11.174Z,29.50
2018-02-06T17:23:39.041Z,27.92
2018-02-06T17:26:06.903Z,30.10
2018-02-06T17:28:34.770Z,23.20
2018-02-06T17:31:02.642Z,25.60
2018-02-06T17:33:31.324Z,31.42
2018-02-06T17:35:59.191Z,28.67
2018-02-06T17:38:27.058Z,30.88
2018-02-06T17:40:54.926Z,22.35
2018-02-06T17:43:22.793Z,25.73
2018-02-06T17:45:50.660Z,28.55
2018-02-06T17:48:18.527Z,31.83
2018-02-06T17:50:46.395Z,25.27
2018-02-06T17:53:14.262Z,27.60
2018-02-06T17:55:42.130Z,26.20
2018-02-06T17:58:09.998Z,31.35
2018-02-06T18:00:37.865Z,25.58
2018-02-06T18:03:05.732Z,26.73
2018-02-06T18:05:33.599Z,31.27
2018-02-06T18:08:01.466Z,26.83
2018-02-06T18:10:29.334Z,26.98
2018-02-06T18:12:57.201Z,26.10
2018-02-06T18:15:25.069Z,27.75
2018-02-06T18:17:52.936Z,27.85
2018-02-06T18:20:20.803Z,27.37
2018-02-06T18:22:48.671Z,30.65
2018-02-06T18:25:16.538Z,29.45
2018-02-06T18:27:44.407Z,27.30
2018-02-06T18:30:12.273Z,27.13
2018-02-06T18:32:40.241Z,32.00
2018-02-06T18:35:08.109Z,29.75
2018-02-06T18:37:35.976Z,31.15
2018-02-06T18:40:03.843Z,30.48
2018-02-06T18:42:31.712Z,29.20
2018-02-06T18:44:59.578Z,31.00
2018-02-06T18:47:27.306Z,30.50
2018-02-06T18:49:55.108Z,30.10
2018-02-06T18:52:22.975Z,34.88
2018-02-06T18:54:50.843Z,30.10
2018-02-06T18:57:18.642Z,27.27
2018-02-06T18:59:47.294Z,29.25
2018-02-06T19:02:15.162Z,31.50
2018-02-06T19:04:43.029Z,29.98
2018-02-06T19:07:10.897Z,26.67
2018-02-06T19:09:38.763Z,31.90
2018-02-06T19:12:06.637Z,34.33
2018-02-06T19:14:34.499Z,32.08
2018-02-06T19:17:02.389Z,29.63
2018-02-06T19:19:31.216Z,29.80
2018-02-06T19:21:59.022Z,35.33
2018-02-06T19:24:27.094Z,31.23
2018-02-06T19:26:54.960Z,32.45
2018-02-06T19:29:22.828Z,33.25
2018-02-06T19:31:50.695Z,30.60
2018-02-06T19:34:18.566Z,28.73
2018-02-06T19:36:46.432Z,32.20
2018-02-06T19:39:14.298Z,32.42
2018-02-06T19:41:42.165Z,31.37
2018-02-06T19:44:10.032Z,29.05
2018-02-06T19:46:37.900Z,29.12
2018-02-06T19:49:05.766Z,31.95
2018-02-06T19:51:33.634Z,30.05
2018-02-06T19:54:01.502Z,28.38
2018-02-06T19:56:29.371Z,30.30
2018-02-06T19:58:57.133Z,28.10
2018-02-06T20:01:25.000Z,29.23
2018-02-06T20:03:52.870Z,31.33
2018-02-06T20:06:20.737Z,32.30
2018-02-06T20:08:48.602Z,27.52
2018-02-06T20:11:16.470Z,32.15
2018-02-06T20:13:44.338Z,26.90
2018-02-06T20:16:12.307Z,31.23
2018-02-06T20:18:40.175Z,27.75
2018-02-06T20:21:08.042Z,30.52
2018-02-06T20:23:35.908Z,38.67
2018-02-06T20:26:03.776Z,36.40
2018-02-06T20:28:31.644Z,33.00
2018-02-06T20:30:59.511Z,33.78
2018-02-06T20:33:27.309Z,34.55
2018-02-06T20:35:55.144Z,32.80
2018-02-06T20:38:23.011Z,29.23
2018-02-06T20:40:50.878Z,29.98
2018-02-06T20:43:18.746Z,32.15
2018-02-06T20:45:46.613Z,36.75
2018-02-06T20:48:14.480Z,32.50
2018-02-06T20:50:42.390Z,35.38
2018-02-06T20:53:11.034Z,37.50
2018-02-06T20:55:38.901Z,31.37
2018-02-06T20:58:06.770Z,35.75
2018-02-06T21:00:34.636Z,32.50
2018-02-06T21:03:02.505Z,28.65
2018-02-06T21:05:30.370Z,27.62
2018-02-06T21:07:58.238Z,28.83
2018-02-06T21:10:26.105Z,27.33
2018-02-06T21:12:53.972Z,29.25
2018-02-06T21:15:21.841Z,24.05
2018-02-06T21:17:49.708Z,28.33
2018-02-06T21:20:17.574Z,28.65
2018-02-06T21:22:45.442Z,29.50
2018-02-06T21:25:13.311Z,30.30
2018-02-06T21:27:41.183Z,29.75
2018-02-06T21:30:09.045Z,29.08
2018-02-06T21:32:36.911Z,31.15
2018-02-06T21:35:04.778Z,25.65
2018-02-06T21:37:33.280Z,28.55
2018-02-06T21:40:01.129Z,29.30
2018-02-06T21:42:28.995Z,36.58
2018-02-06T21:44:59.068Z,32.80
2018-02-06T21:47:28.697Z,32.38
2018-02-06T21:49:58.120Z,33.65
2018-02-06T21:52:25.994Z,33.30
2018-02-06T21:54:54.348Z,28.17
2018-02-06T21:57:22.241Z,32.88
2018-02-06T21:59:50.050Z,33.13
2018-02-06T22:02:17.974Z,34.55
2018-02-06T22:04:47.114Z,38.40
2018-02-06T22:07:15.042Z,27.35
2018-02-06T22:09:43.045Z,30.73
2018-02-06T22:12:11.698Z,34.17
2018-02-06T22:14:39.666Z,32.05
2018-02-06T22:17:07.944Z,31.67
2018-02-06T22:19:35.741Z,33.35
2018-02-06T22:22:03.576Z,35.13
2018-02-06T22:24:31.377Z,32.97
2018-02-06T22:27:00.029Z,35.90
2018-02-06T22:29:27.997Z,32.40
2018-02-06T22:31:55.864Z,34.42
2018-02-06T22:34:23.834Z,27.75
2018-02-06T22:36:51.635Z,33.47
2018-02-06T22:39:20.626Z,33.95
2018-02-06T22:41:49.282Z,31.58
2018-02-06T22:44:17.147Z,35.90
2018-02-06T22:46:45.015Z,41.20
2018-02-06T22:49:12.886Z,35.45
2018-02-06T22:51:40.749Z,31.10
2018-02-06T22:54:08.616Z,33.33
2018-02-06T22:56:36.485Z,33.40
2018-02-06T22:59:04.351Z,40.05
2018-02-06T23:01:32.218Z,31.50
2018-02-06T23:04:00.085Z,36.00
2018-02-06T23:06:27.954Z,34.67
2018-02-06T23:08:55.820Z,32.72
2018-02-06T23:11:24.513Z,30.95
2018-02-06T23:13:52.476Z,33.92
2018-02-06T23:16:20.350Z,35.80
2018-02-06T23:18:48.211Z,32.40
2018-02-06T23:21:16.084Z,37.22
2018-02-06T23:23:43.946Z,38.95
2018-02-06T23:26:11.813Z,33.05
2018-02-06T23:28:39.783Z,34.15
2018-02-06T23:31:07.650Z,34.83
2018-02-06T23:33:35.517Z,37.97
2018-02-06T23:36:03.385Z,32.38
2018-02-06T23:38:31.252Z,30.33
2018-02-06T23:40:59.120Z,31.80
2018-02-06T23:43:26.986Z,34.25
2018-02-06T23:45:54.853Z,31.95
2018-02-06T23:48:22.721Z,35.42
2018-02-06T23:50:50.588Z,34.40
2018-02-06T23:53:18.456Z,34.10
2018-02-06T23:55:46.323Z,32.40
2018-02-06T23:58:14.191Z,31.35
